createdAt,value
2023-01-12T00:00:11.199Z,100569.00
2023-01-12T00:05:07.990Z,100562.78
2023-01-12T00:10:04.730Z,100559.09
2023-01-12T00:15:01.106Z,100557.78
2023-01-12T00:19:57.473Z,100550.38
2023-01-12T00:24:54.958Z,100591.84
2023-01-12T00:29:52.769Z,100551.97
2023-01-12T00:34:49.219Z,100538.91
2023-01-12T00:39:56.757Z,100531.38
2023-01-12T00:45:11.746Z,100517.19
2023-01-12T00:50:08.714Z,100543.19
2023-01-12T00:55:05.648Z,100534.25
2023-01-12T01:00:02.049Z,100523.09
2023-01-12T01:04:58.461Z,100525.09
2023-01-12T01:09:55.159Z,100513.63
2023-01-12T01:14:53.367Z,100513.84
2023-01-12T01:19:49.802Z,100505.88
2023-01-12T01:24:47.580Z,100495.00
2023-01-12T01:29:44.066Z,100492.09
2023-01-12T01:34:40.795Z,100497.97
2023-01-12T01:39:37.226Z,100502.50
2023-01-12T01:44:33.542Z,100498.50
2023-01-12T01:49:39.009Z,100506.03
2023-01-12T01:54:39.910Z,100486.13
2023-01-12T01:59:40.149Z,100485.78
2023-01-12T02:04:37.720Z,100476.44
2023-01-12T02:09:34.170Z,100469.59
2023-01-12T02:14:49.912Z,100468.69
2023-01-12T02:20:16.078Z,100505.16
2023-01-12T02:25:48.900Z,100480.69
2023-01-12T02:30:57.193Z,100485.53
2023-01-12T02:35:58.695Z,100485.53
2023-01-12T02:41:44.641Z,100496.41
2023-01-12T02:46:42.542Z,100486.31
2023-01-12T02:51:54.551Z,100472.22
2023-01-12T02:56:54.723Z,100476.16
2023-01-12T03:01:53.352Z,100477.53
2023-01-12T03:06:55.895Z,100480.47
2023-01-12T03:11:53.691Z,100485.50
2023-01-12T03:16:51.383Z,100481.06
2023-01-12T03:22:04.691Z,100479.03
2023-01-12T03:27:14.307Z,100484.66
2023-01-12T03:32:10.894Z,100492.72
2023-01-12T03:37:22.131Z,100481.16
2023-01-12T03:42:27.878Z,100477.84
2023-01-12T03:47:26.976Z,100454.91
2023-01-12T03:52:25.732Z,100474.50
2023-01-12T03:57:23.203Z,100454.69
2023-01-12T04:02:20.367Z,100461.53
2023-01-12T04:07:16.791Z,100449.56
2023-01-12T04:12:13.476Z,100448.44
2023-01-12T04:17:14.454Z,100447.03
2023-01-12T04:22:33.818Z,100436.97
2023-01-12T04:27:30.304Z,100430.09
2023-01-12T04:32:26.740Z,100428.69
2023-01-12T04:37:23.161Z,100421.03
2023-01-12T04:42:37.945Z,100421.38
2023-01-12T04:47:34.475Z,100417.03
2023-01-12T04:52:30.896Z,100403.94
2023-01-12T04:57:27.462Z,100407.97
2023-01-12T05:02:24.511Z,100394.88
2023-01-12T05:07:21.447Z,100385.63
2023-01-12T05:12:17.990Z,100388.53
2023-01-12T05:17:14.760Z,100376.75
2023-01-12T05:22:11.192Z,100378.56
2023-01-12T05:27:07.657Z,100380.19
2023-01-12T05:32:04.304Z,100373.03
2023-01-12T05:37:00.751Z,100361.66
2023-01-12T05:42:15.681Z,100357.31
2023-01-12T05:47:12.081Z,100332.94
2023-01-12T05:52:08.627Z,100327.00
2023-01-12T05:57:05.186Z,100330.22
2023-01-12T06:02:01.684Z,100311.50
2023-01-12T06:06:58.180Z,100310.72
2023-01-12T06:12:13.140Z,100301.75
2023-01-12T06:17:09.565Z,100295.03
2023-01-12T06:22:09.177Z,100284.66
2023-01-12T06:27:05.754Z,100275.91
2023-01-12T06:32:02.264Z,100265.03
2023-01-12T06:36:58.694Z,100262.81
2023-01-12T06:42:14.238Z,100253.88
2023-01-12T06:47:10.753Z,100246.53
2023-01-12T06:52:07.398Z,100243.19
2023-01-12T06:57:03.805Z,100227.78
2023-01-12T07:02:00.381Z,100211.47
2023-01-12T07:06:56.847Z,100216.91
2023-01-12T07:11:53.266Z,100202.25
2023-01-12T07:16:49.719Z,100189.75
2023-01-12T07:21:46.199Z,100165.78
2023-01-12T07:26:42.639Z,100154.31
2023-01-12T07:31:39.584Z,100134.19
2023-01-12T07:36:36.010Z,100131.13
2023-01-12T07:41:51.341Z,100121.41
2023-01-12T07:46:47.802Z,100102.56
2023-01-12T07:51:44.210Z,100102.56
2023-01-12T07:56:44.037Z,100102.56
2023-01-12T08:01:41.224Z,100075.41
2023-01-12T08:06:37.880Z,100087.66
2023-01-12T08:11:34.280Z,100053.66
2023-01-12T08:16:39.479Z,100043.38
2023-01-12T08:21:45.889Z,100042.72
2023-01-12T08:26:45.041Z,100031.16
2023-01-12T08:31:42.244Z,100009.41
2023-01-12T08:36:43.838Z,100015.47
2023-01-12T08:41:42.263Z,100008.81
2023-01-12T08:46:48.944Z,99993.13
2023-01-12T08:51:46.278Z,99998.38
2023-01-12T08:56:42.856Z,99998.56
2023-01-12T09:01:39.676Z,99990.91
2023-01-12T09:06:39.763Z,99984.88
2023-01-12T09:11:38.214Z,99974.78
2023-01-12T09:16:34.678Z,99999.31
2023-01-12T09:21:32.273Z,99986.81
2023-01-12T09:26:32.150Z,100000.25
2023-01-12T09:31:30.305Z,99989.41
2023-01-12T09:36:28.909Z,99985.94
2023-01-12T09:41:50.864Z,99982.59
2023-01-12T09:46:59.241Z,99980.41
2023-01-12T09:52:13.547Z,99992.28
2023-01-12T09:57:51.753Z,99977.44
2023-01-12T10:03:12.043Z,99984.66
2023-01-12T10:08:36.403Z,99967.44
2023-01-12T10:14:13.750Z,100001.88
2023-01-12T10:19:19.443Z,99985.53
2023-01-12T10:24:21.135Z,99991.13
2023-01-12T10:29:17.627Z,100005.56
2023-01-12T10:34:14.041Z,100006.34
2023-01-12T10:39:33.039Z,99999.66
2023-01-12T10:44:29.436Z,100014.75
2023-01-12T10:49:26.866Z,99996.50
2023-01-12T10:54:28.573Z,100000.66
2023-01-12T10:59:31.425Z,99983.53
2023-01-12T11:04:29.550Z,99987.53
2023-01-12T11:09:28.542Z,99985.31
2023-01-12T11:14:43.406Z,99979.56
2023-01-12T11:19:43.095Z,99970.25
2023-01-12T11:25:02.643Z,99981.00
2023-01-12T11:30:07.637Z,99985.81
2023-01-12T11:35:44.935Z,99990.63
2023-01-12T11:40:44.038Z,99998.78
2023-01-12T11:45:50.147Z,100000.38
2023-01-12T11:50:48.490Z,100000.72
2023-01-12T11:55:59.412Z,99972.53
2023-01-12T12:01:07.304Z,100008.38
2023-01-12T12:06:18.669Z,99993.00
2023-01-12T12:11:34.432Z,100008.13
2023-01-12T12:16:51.379Z,100026.38
2023-01-12T12:22:11.975Z,100003.00
2023-01-12T12:27:35.255Z,100005.41
2023-01-12T12:32:40.285Z,100010.50
2023-01-12T12:37:39.397Z,100017.41
2023-01-12T12:43:09.610Z,100020.75
2023-01-12T12:48:12.909Z,100024.13
2023-01-12T12:53:17.862Z,100032.16
2023-01-12T12:58:23.257Z,100014.19
2023-01-12T13:03:41.607Z,100016.44
2023-01-12T13:08:39.020Z,100019.44
2023-01-12T13:13:38.876Z,100013.06
2023-01-12T13:18:59.082Z,100016.88
2023-01-12T13:24:11.184Z,100025.16
2023-01-12T13:29:23.016Z,100021.13
2023-01-12T13:34:31.525Z,100035.66
2023-01-12T13:39:28.241Z,100043.19
2023-01-12T13:44:33.475Z,100044.50
2023-01-12T13:49:31.490Z,100047.22
2023-01-12T13:54:28.770Z,100066.50
2023-01-12T13:59:26.967Z,100066.97
2023-01-12T14:04:29.452Z,100069.22
2023-01-12T14:09:44.133Z,100066.31
2023-01-12T14:15:07.237Z,100072.44
2023-01-12T14:20:13.902Z,100070.19
2023-01-12T14:25:14.601Z,100084.31
2023-01-12T14:30:12.460Z,100085.59
2023-01-12T14:35:24.000Z,100091.84
2023-01-12T14:40:28.219Z,100101.97
2023-01-12T14:45:46.060Z,100099.44
2023-01-12T14:51:18.067Z,100100.56
2023-01-12T14:56:56.591Z,100111.97
2023-01-12T15:01:53.181Z,100110.69
2023-01-12T15:07:01.887Z,100120.31
2023-01-12T15:11:59.790Z,100131.84
2023-01-12T15:17:15.172Z,100133.16
2023-01-12T15:22:30.218Z,100153.03
2023-01-12T15:27:27.539Z,100153.50
2023-01-12T15:32:45.538Z,100155.44
2023-01-12T15:37:43.005Z,100153.53
2023-01-12T15:42:39.546Z,100159.63
2023-01-12T15:47:35.979Z,100157.69
2023-01-12T15:52:32.582Z,100164.41
2023-01-12T15:57:29.046Z,100156.91
2023-01-12T16:02:37.242Z,100167.16
2023-01-12T16:07:34.040Z,100163.94
2023-01-12T16:12:30.705Z,100164.91
2023-01-12T16:17:27.120Z,100160.44
2023-01-12T16:22:26.352Z,100163.31
2023-01-12T16:27:25.220Z,100174.69
2023-01-12T16:32:23.959Z,100167.19
2023-01-12T16:37:22.909Z,100150.81
2023-01-12T16:42:19.594Z,100149.19
2023-01-12T16:47:19.701Z,100147.44
2023-01-12T16:52:18.806Z,100131.84
2023-01-12T16:57:17.731Z,100126.75
2023-01-12T17:02:15.992Z,100128.34
2023-01-12T17:07:12.850Z,100127.38
2023-01-12T17:12:10.001Z,100129.00
2023-01-12T17:17:09.821Z,100123.19
2023-01-12T17:22:07.681Z,100123.53
2023-01-12T17:27:04.269Z,100114.88
2023-01-12T17:32:04.070Z,100110.53
2023-01-12T17:37:07.941Z,100103.78
2023-01-12T17:42:22.818Z,100094.34
2023-01-12T17:47:19.234Z,100100.44
2023-01-12T17:52:16.282Z,100094.19
2023-01-12T17:57:13.428Z,100084.88
2023-01-12T18:02:11.865Z,100082.47
2023-01-12T18:07:08.539Z,100075.41
2023-01-12T18:12:05.289Z,100068.34
2023-01-12T18:17:01.704Z,100068.69
2023-01-12T18:21:58.371Z,100067.91
2023-01-12T18:26:54.968Z,100067.41
2023-01-12T18:31:51.682Z,100070.63
2023-01-12T18:36:48.103Z,100061.97
2023-01-12T18:42:03.694Z,100048.81
2023-01-12T18:47:19.252Z,100040.16
2023-01-12T18:52:36.259Z,100030.81
2023-01-12T18:57:33.137Z,100041.72
2023-01-12T19:02:29.861Z,100040.16
2023-01-12T19:07:39.835Z,100023.78
2023-01-12T19:12:36.293Z,100023.78
2023-01-12T19:17:33.105Z,100025.38
2023-01-12T19:22:48.054Z,100022.16
2023-01-12T19:28:03.054Z,100016.72
2023-01-12T19:33:00.824Z,100004.88
2023-01-12T19:37:57.333Z,99997.81
2023-01-12T19:43:13.895Z,100005.66
2023-01-12T19:48:12.542Z,100007.91
2023-01-12T19:53:12.978Z,99996.22
2023-01-12T19:58:09.845Z,99989.16
2023-01-12T20:03:06.313Z,99994.59
2023-01-12T20:08:02.797Z,99982.91
2023-01-12T20:12:59.219Z,99974.41
2023-01-12T20:17:59.936Z,99987.38
2023-01-12T20:22:56.502Z,99984.00
2023-01-12T20:27:53.497Z,99980.16
2023-01-12T20:32:51.647Z,99974.22
2023-01-12T20:37:49.149Z,99988.66
2023-01-12T20:42:45.872Z,99994.28
2023-01-12T20:47:42.351Z,99988.53
2023-01-12T20:52:38.872Z,100012.41
2023-01-12T20:57:38.665Z,100004.53
2023-01-12T21:02:35.776Z,100021.56
2023-01-12T21:07:32.229Z,100036.31
2023-01-12T21:12:28.784Z,100045.59
2023-01-12T21:17:25.176Z,100025.41
2023-01-12T21:22:21.834Z,100033.59
2023-01-12T21:27:18.322Z,100044.81
2023-01-12T21:32:14.889Z,100034.69
2023-01-12T21:37:11.374Z,100028.63
2023-01-12T21:42:26.436Z,100019.31
2023-01-12T21:47:22.868Z,100035.00
2023-01-12T21:52:19.288Z,100019.31
2023-01-12T21:57:15.755Z,100013.84
2023-01-12T22:02:12.292Z,100020.44
2023-01-12T22:07:09.238Z,100006.16
2023-01-12T22:12:05.942Z,100010.81
2023-01-12T22:17:02.445Z,100015.63
2023-01-12T22:21:58.831Z,100004.41
2023-01-12T22:26:55.398Z,100008.56
2023-01-12T22:31:51.820Z,99995.09
2023-01-12T22:36:48.231Z,100004.22
2023-01-12T22:41:44.626Z,99992.34
2023-01-12T22:46:41.296Z,99996.69
2023-01-12T22:51:37.944Z,100006.47
2023-01-12T22:56:34.367Z,99993.31
2023-01-12T23:01:30.772Z,100001.31
2023-01-12T23:06:27.331Z,99977.44
2023-01-12T23:11:26.291Z,99977.63
2023-01-12T23:16:23.020Z,99976.78
2023-01-12T23:21:25.043Z,99965.09
2023-01-12T23:26:23.988Z,99973.28
2023-01-12T23:31:23.418Z,99958.97
2023-01-12T23:36:23.195Z,99961.56
2023-01-12T23:41:21.850Z,99961.06
2023-01-12T23:46:22.388Z,99950.00
2023-01-12T23:51:18.810Z,99938.47
2023-01-12T23:56:16.696Z,99919.88
